Andrómeda ‚ÄĒ CTHK ‚ÄĒ position and weather

sailwx.info

Track history (hours):
 
Tides and Currents Weather Stations Pressure Air Temp Water Temp Dewpoint Dewpoint Depression Visibility Wind Speed Wind Dir Waves Ship Positions

Oceanographic research ship Andrómeda (Portugal)

Detailed information on ship capabilities available from University of Delaware's Ocean Information Center.

Last reported at 2019-Sep-18 11:01 UTC. Time now 2019-Sep-18 11:20 UTC.
Position N 38°09' W 009°26'.

Length 32 m; draft 3 m.

Type: Dredging. MMSI: 263139000.

Date/timePositionNaut miles runAvg speedWind from/ knotsBaromVisibWave heightAir tempDewpointWater temp
2019-Sep-18 11:01N 38°09' W 009°26'1 1.3
2019-Sep-18 10:31N 38°09' W 009°26'1 1.2
2019-Sep-18 10:00N 38°10' W 009°25'0 0.4
2019-Sep-18 09:27N 38°10' W 009°25'0 0.9
2019-Sep-18 09:00N 38°09' W 009°25'1 2.1
2019-Sep-18 08:30N 38°08' W 009°25'2 4.2
2019-Sep-18 08:00N 38°09' W 009°27'1 2.3
2019-Sep-18 07:31N 38°08' W 009°26'1 2.4
2019-Sep-18 07:00N 38°09' W 009°25'510.6
2019-Sep-18 06:31N 38°12' W 009°20'611.5
2019-Sep-18 06:01N 38°17' W 009°15'611.6
2019-Sep-18 05:30N 38°21' W 009°10'510.2
2019-Sep-18 05:00N 38°24' W 009°05'2 3.2
2019-Sep-18 04:28N 38°26' W 009°06'0 0.0
2019-Sep-18 03:58N 38°26' W 009°06'0 0.0
2019-Sep-18 03:28N 38°26' W 009°06'0 0.0
2019-Sep-18 02:55N 38°26' W 009°06'0 0.0
2019-Sep-18 02:22N 38°26' W 009°06'0 0.0
2019-Sep-18 01:58N 38°26' W 009°06'0 0.0
2019-Sep-18 01:28N 38°26' W 009°06'0 0.0
2019-Sep-18 00:58N 38°26' W 009°06'0 0.0
2019-Sep-18 00:28N 38°26' W 009°06'0 0.0
2019-Sep-17 23:55N 38°26' W 009°06'0 0.0
2019-Sep-17 23:28N 38°26' W 009°06'0 0.0
2019-Sep-17 22:58N 38°26' W 009°06'0 0.0
2019-Sep-17 22:25N 38°26' W 009°06'0 0.0
2019-Sep-17 22:00N 38°26' W 009°06'0 0.0
2019-Sep-17 21:30N 38°26' W 009°06'0 0.0
2019-Sep-17 21:01N 38°26' W 009°06'0 0.0
2019-Sep-17 20:30N 38°26' W 009°06'0 0.0
2019-Sep-17 20:00N 38°26' W 009°06'1 2.9
2019-Sep-17 19:30N 38°25' W 009°07'4 8.7
2019-Sep-17 19:01N 38°21' W 009°09'5 9.0
2019-Sep-17 18:30N 38°17' W 009°12'5 9.1
2019-Sep-17 18:00N 38°13' W 009°15'4 9.0
2019-Sep-17 17:30N 38°09' W 009°17'2 3.4
2019-Sep-17 16:50N 38°07' W 009°20'0 0.5
2019-Sep-17 16:31N 38°07' W 009°20'1 2.2
2019-Sep-17 16:01N 38°08' W 009°21'1 2.4
2019-Sep-17 15:28N 38°08' W 009°23'1 1.3
2019-Sep-17 14:36N 38°08' W 009°21'0 2.3
2019-Sep-17 14:30N 38°08' W 009°21'1 1.8
2019-Sep-17 14:00N 38°09' W 009°21'510.2
2019-Sep-17 13:31N 38°13' W 009°17'510.5
2019-Sep-17 13:00N 38°17' W 009°13'510.9
2019-Sep-17 12:31N 38°22' W 009°09'5 9.3
2019-Sep-17 12:00N 38°26' W 009°06'3 6.9
2019-Sep-17 11:31N 38°23' W 009°08'3 6.2
2019-Sep-17 11:00N 38°20' W 009°10'1 1.5
2019-Sep-17 10:30N 38°20' W 009°11'1 2.3
2019-Sep-17 10:01N 38°19' W 009°12'1 2.5
2019-Sep-17 09:30N 38°19' W 009°14'1 1.3
2019-Sep-17 09:01N 38°19' W 009°14'2 4.6
2019-Sep-17 08:30N 38°19' W 009°17'2 4.6
2019-Sep-17 08:00N 38°17' W 009°19'4 7.4
2019-Sep-17 07:31N 38°17' W 009°15'4 7.3
2019-Sep-17 07:01N 38°20' W 009°11'4 8.3
2019-Sep-17 06:31N 38°23' W 009°08'3 6.6
2019-Sep-17 06:00N 38°26' W 009°07'0 0.0
2019-Sep-17 05:30N 38°26' W 009°07'0 0.0
2019-Sep-17 05:00N 38°26' W 009°07'0 0.0
2019-Sep-17 04:30N 38°26' W 009°07'0 0.0
2019-Sep-17 04:01N 38°26' W 009°07'0 0.0
2019-Sep-17 03:30N 38°26' W 009°07'0 0.0
2019-Sep-17 03:00N 38°26' W 009°07'0 0.0
2019-Sep-17 02:30N 38°26' W 009°07'0 0.0
2019-Sep-17 02:00N 38°26' W 009°07'0 0.0
2019-Sep-17 01:30N 38°26' W 009°07'0 0.0
2019-Sep-17 01:00N 38°26' W 009°07'0 0.0
2019-Sep-17 00:31N 38°26' W 009°07'0 0.0
2019-Sep-17 00:00N 38°26' W 009°07'0 0.0
2019-Sep-16 23:30N 38°26' W 009°07'0 0.0
2019-Sep-16 23:00N 38°26' W 009°07'0 0.0
2019-Sep-16 22:30N 38°26' W 009°07'0 0.0
2019-Sep-16 22:00N 38°26' W 009°07'0 0.0
2019-Sep-16 21:31N 38°26' W 009°07'0 0.0
2019-Sep-16 21:00N 38°26' W 009°07'0 0.0
2019-Sep-16 20:30N 38°26' W 009°07'0 0.0
2019-Sep-16 20:00N 38°26' W 009°07'0 0.0
2019-Sep-16 19:30N 38°26' W 009°07'0 0.0
2019-Sep-16 19:01N 38°26' W 009°07'0 0.0
2019-Sep-16 18:30N 38°26' W 009°07'0 0.0
2019-Sep-16 18:01N 38°26' W 009°07'0 0.0
2019-Sep-16 17:30N 38°26' W 009°07'0 0.0
2019-Sep-16 17:00N 38°26' W 009°07'0 0.0
2019-Sep-16 16:30N 38°26' W 009°07'0 0.0
2019-Sep-16 16:00N 38°26' W 009°07'0 0.0
2019-Sep-16 15:30N 38°26' W 009°07'0 0.0
2019-Sep-16 15:00N 38°26' W 009°07'0 0.0
2019-Sep-16 14:30N 38°26' W 009°07'0 0.0
2019-Sep-16 14:00N 38°26' W 009°07'0 0.0
2019-Sep-16 13:30N 38°26' W 009°07'1 1.2
2019-Sep-16 13:00N 38°26' W 009°06'2 3.5
2019-Sep-16 12:30N 38°24' W 009°06'4 7.6
2019-Sep-16 12:01N 38°24' W 009°11'3 6.9
2019-Sep-16 11:30N 38°26' W 009°15'5 9.4
2019-Sep-16 11:01N 38°30' W 009°17'5 9.4
2019-Sep-16 10:30N 38°35' W 009°19'4 8.8
2019-Sep-16 10:01N 38°39' W 009°20'5 9.8
2019-Sep-16 09:30N 38°41' W 009°14'  
Track history (hours):
 
Tides and Currents Weather Stations Pressure Air Temp Water Temp Dewpoint Dewpoint Depression Visibility Wind Speed Wind Dir Waves Ship Positions

Oceanographic research ship Andrómeda (Portugal)

Detailed information on ship capabilities available from University of Delaware's Ocean Information Center.

Last reported at 2019-Sep-18 11:01 UTC. Time now 2019-Sep-18 11:20 UTC.
Position N 38°09' W 009°26'.

Length 32 m; draft 3 m.

Type: Dredging. MMSI: 263139000.

Date/timePositionNaut miles runAvg speedWind from/ knotsBaromVisibWave heightAir tempDewpointWater temp
2019-Sep-18 11:01N 38°09' W 009°26'1 1.3
2019-Sep-18 10:31N 38°09' W 009°26'1 1.2
2019-Sep-18 10:00N 38°10' W 009°25'0 0.4
2019-Sep-18 09:27N 38°10' W 009°25'0 0.9
2019-Sep-18 09:00N 38°09' W 009°25'1 2.1
2019-Sep-18 08:30N 38°08' W 009°25'2 4.2
2019-Sep-18 08:00N 38°09' W 009°27'1 2.3
2019-Sep-18 07:31N 38°08' W 009°26'1 2.4
2019-Sep-18 07:00N 38°09' W 009°25'510.6
2019-Sep-18 06:31N 38°12' W 009°20'611.5
2019-Sep-18 06:01N 38°17' W 009°15'611.6
2019-Sep-18 05:30N 38°21' W 009°10'510.2
2019-Sep-18 05:00N 38°24' W 009°05'2 3.2
2019-Sep-18 04:28N 38°26' W 009°06'0 0.0
2019-Sep-18 03:58N 38°26' W 009°06'0 0.0
2019-Sep-18 03:28N 38°26' W 009°06'0 0.0
2019-Sep-18 02:55N 38°26' W 009°06'0 0.0
2019-Sep-18 02:22N 38°26' W 009°06'0 0.0
2019-Sep-18 01:58N 38°26' W 009°06'0 0.0
2019-Sep-18 01:28N 38°26' W 009°06'0 0.0
2019-Sep-18 00:58N 38°26' W 009°06'0 0.0
2019-Sep-18 00:28N 38°26' W 009°06'0 0.0
2019-Sep-17 23:55N 38°26' W 009°06'0 0.0
2019-Sep-17 23:28N 38°26' W 009°06'0 0.0
2019-Sep-17 22:58N 38°26' W 009°06'0 0.0
2019-Sep-17 22:25N 38°26' W 009°06'0 0.0
2019-Sep-17 22:00N 38°26' W 009°06'0 0.0
2019-Sep-17 21:30N 38°26' W 009°06'0 0.0
2019-Sep-17 21:01N 38°26' W 009°06'0 0.0
2019-Sep-17 20:30N 38°26' W 009°06'0 0.0
2019-Sep-17 20:00N 38°26' W 009°06'1 2.9
2019-Sep-17 19:30N 38°25' W 009°07'4 8.7
2019-Sep-17 19:01N 38°21' W 009°09'5 9.0
2019-Sep-17 18:30N 38°17' W 009°12'5 9.1
2019-Sep-17 18:00N 38°13' W 009°15'4 9.0
2019-Sep-17 17:30N 38°09' W 009°17'2 3.4
2019-Sep-17 16:50N 38°07' W 009°20'0 0.5
2019-Sep-17 16:31N 38°07' W 009°20'1 2.2
2019-Sep-17 16:01N 38°08' W 009°21'1 2.4
2019-Sep-17 15:28N 38°08' W 009°23'1 1.3
2019-Sep-17 14:36N 38°08' W 009°21'0 2.3
2019-Sep-17 14:30N 38°08' W 009°21'1 1.8
2019-Sep-17 14:00N 38°09' W 009°21'510.2
2019-Sep-17 13:31N 38°13' W 009°17'510.5
2019-Sep-17 13:00N 38°17' W 009°13'510.9
2019-Sep-17 12:31N 38°22' W 009°09'5 9.3
2019-Sep-17 12:00N 38°26' W 009°06'3 6.9
2019-Sep-17 11:31N 38°23' W 009°08'3 6.2
2019-Sep-17 11:00N 38°20' W 009°10'1 1.5
2019-Sep-17 10:30N 38°20' W 009°11'1 2.3
2019-Sep-17 10:01N 38°19' W 009°12'1 2.5
2019-Sep-17 09:30N 38°19' W 009°14'1 1.3
2019-Sep-17 09:01N 38°19' W 009°14'2 4.6
2019-Sep-17 08:30N 38°19' W 009°17'2 4.6
2019-Sep-17 08:00N 38°17' W 009°19'4 7.4
2019-Sep-17 07:31N 38°17' W 009°15'4 7.3
2019-Sep-17 07:01N 38°20' W 009°11'4 8.3
2019-Sep-17 06:31N 38°23' W 009°08'3 6.6
2019-Sep-17 06:00N 38°26' W 009°07'0 0.0
2019-Sep-17 05:30N 38°26' W 009°07'0 0.0
2019-Sep-17 05:00N 38°26' W 009°07'0 0.0
2019-Sep-17 04:30N 38°26' W 009°07'0 0.0
2019-Sep-17 04:01N 38°26' W 009°07'0 0.0
2019-Sep-17 03:30N 38°26' W 009°07'0 0.0
2019-Sep-17 03:00N 38°26' W 009°07'0 0.0
2019-Sep-17 02:30N 38°26' W 009°07'0 0.0
2019-Sep-17 02:00N 38°26' W 009°07'0 0.0
2019-Sep-17 01:30N 38°26' W 009°07'0 0.0
2019-Sep-17 01:00N 38°26' W 009°07'0 0.0
2019-Sep-17 00:31N 38°26' W 009°07'0 0.0
2019-Sep-17 00:00N 38°26' W 009°07'0 0.0
2019-Sep-16 23:30N 38°26' W 009°07'0 0.0
2019-Sep-16 23:00N 38°26' W 009°07'0 0.0
2019-Sep-16 22:30N 38°26' W 009°07'0 0.0
2019-Sep-16 22:00N 38°26' W 009°07'0 0.0
2019-Sep-16 21:31N 38°26' W 009°07'0 0.0
2019-Sep-16 21:00N 38°26' W 009°07'0 0.0
2019-Sep-16 20:30N 38°26' W 009°07'0 0.0
2019-Sep-16 20:00N 38°26' W 009°07'0 0.0
2019-Sep-16 19:30N 38°26' W 009°07'0 0.0
2019-Sep-16 19:01N 38°26' W 009°07'0 0.0
2019-Sep-16 18:30N 38°26' W 009°07'0 0.0
2019-Sep-16 18:01N 38°26' W 009°07'0 0.0
2019-Sep-16 17:30N 38°26' W 009°07'0 0.0
2019-Sep-16 17:00N 38°26' W 009°07'0 0.0
2019-Sep-16 16:30N 38°26' W 009°07'0 0.0
2019-Sep-16 16:00N 38°26' W 009°07'0 0.0
2019-Sep-16 15:30N 38°26' W 009°07'0 0.0
2019-Sep-16 15:00N 38°26' W 009°07'0 0.0
2019-Sep-16 14:30N 38°26' W 009°07'0 0.0
2019-Sep-16 14:00N 38°26' W 009°07'0 0.0
2019-Sep-16 13:30N 38°26' W 009°07'1 1.2
2019-Sep-16 13:00N 38°26' W 009°06'2 3.5
2019-Sep-16 12:30N 38°24' W 009°06'4 7.6
2019-Sep-16 12:01N 38°24' W 009°11'3 6.9
2019-Sep-16 11:30N 38°26' W 009°15'5 9.4
2019-Sep-16 11:01N 38°30' W 009°17'5 9.4
2019-Sep-16 10:30N 38°35' W 009°19'4 8.8
2019-Sep-16 10:01N 38°39' W 009°20'5 9.8
2019-Sep-16 09:30N 38°41' W 009°14'  

Dump ship's entire track history